createdAt,value
2023-04-14T00:01:18.801Z,7.60
2023-04-14T00:03:46.190Z,7.50
2023-04-14T00:06:13.801Z,7.50
2023-04-14T00:08:41.142Z,7.50
2023-04-14T00:11:08.638Z,7.50
2023-04-14T00:13:36.228Z,7.50
2023-04-14T00:16:03.673Z,7.40
2023-04-14T00:18:31.154Z,7.40
2023-04-14T00:20:58.463Z,7.30
2023-04-14T00:23:28.547Z,7.30
2023-04-14T00:25:55.728Z,7.30
2023-04-14T00:28:22.953Z,7.30
2023-04-14T00:30:50.353Z,7.20
2023-04-14T00:33:17.716Z,7.20
2023-04-14T00:35:44.939Z,7.20
2023-04-14T00:38:13.766Z,7.10
2023-04-14T00:40:41.062Z,7.10
2023-04-14T00:43:08.232Z,7.10
2023-04-14T00:45:43.960Z,7.10
2023-04-14T00:48:11.710Z,7.00
2023-04-14T00:50:38.756Z,7.00
2023-04-14T00:53:06.484Z,6.90
2023-04-14T00:55:35.226Z,6.90
2023-04-14T00:58:03.829Z,6.80
2023-04-14T01:00:31.325Z,6.80
2023-04-14T01:02:59.997Z,6.70
2023-04-14T01:05:27.375Z,6.70
2023-04-14T01:07:55.191Z,6.70
2023-04-14T01:10:23.192Z,6.60
2023-04-14T01:13:09.362Z,6.60
2023-04-14T01:15:43.935Z,6.60
2023-04-14T01:18:21.827Z,6.50
2023-04-14T01:20:52.185Z,6.50
2023-04-14T01:23:32.215Z,6.50
2023-04-14T01:26:36.679Z,6.40
2023-04-14T01:29:06.900Z,6.40
2023-04-14T01:31:46.356Z,6.40
2023-04-14T01:34:31.816Z,6.30
2023-04-14T01:37:11.728Z,6.30
2023-04-14T01:39:48.655Z,6.30
2023-04-14T01:42:20.282Z,6.30
2023-04-14T01:44:52.673Z,6.20
2023-04-14T01:47:21.998Z,6.10
2023-04-14T01:49:51.776Z,6.00
2023-04-14T01:52:20.011Z,5.80
2023-04-14T01:54:51.586Z,5.80
2023-04-14T01:57:23.237Z,5.80
2023-04-14T01:59:54.055Z,5.80
2023-04-14T02:02:23.007Z,5.80
2023-04-14T02:04:52.135Z,5.80
2023-04-14T02:07:22.226Z,5.80
2023-04-14T02:09:51.123Z,5.80
2023-04-14T02:12:20.098Z,5.80
2023-04-14T02:14:48.066Z,5.80
2023-04-14T02:17:17.680Z,5.80
2023-04-14T02:19:45.550Z,5.80
2023-04-14T02:22:13.066Z,5.80
2023-04-14T02:24:40.558Z,5.80
2023-04-14T02:27:12.017Z,5.80
2023-04-14T02:29:43.800Z,5.80
2023-04-14T02:32:20.283Z,5.80
2023-04-14T02:35:12.484Z,5.70
2023-04-14T02:37:48.909Z,5.70
2023-04-14T02:40:22.359Z,5.70
2023-04-14T02:43:05.313Z,5.60
2023-04-14T02:45:35.663Z,5.60
2023-04-14T02:48:07.877Z,5.60
2023-04-14T02:50:37.677Z,5.60
2023-04-14T02:53:05.509Z,5.60
2023-04-14T02:55:33.832Z,5.60
2023-04-14T02:58:01.564Z,5.70
2023-04-14T03:00:29.184Z,5.60
2023-04-14T03:02:58.185Z,5.70
2023-04-14T03:05:26.378Z,5.60
2023-04-14T03:07:55.327Z,5.70
2023-04-14T03:10:23.830Z,5.70
2023-04-14T03:12:52.832Z,5.70
2023-04-14T03:15:22.263Z,5.70
2023-04-14T03:17:54.344Z,5.70
2023-04-14T03:20:24.090Z,5.70
2023-04-14T03:23:05.543Z,5.70
2023-04-14T03:25:38.539Z,5.70
2023-04-14T03:28:10.194Z,5.70
2023-04-14T03:30:42.150Z,5.70
2023-04-14T03:33:13.237Z,5.70
2023-04-14T03:35:41.378Z,5.70
2023-04-14T03:38:11.309Z,5.60
2023-04-14T03:40:42.669Z,5.60
2023-04-14T03:43:12.545Z,5.60
2023-04-14T03:45:40.992Z,5.60
2023-04-14T03:48:12.899Z,5.60
2023-04-14T03:50:43.149Z,5.60
2023-04-14T03:53:16.179Z,5.60
2023-04-14T03:55:45.699Z,5.60
2023-04-14T03:58:14.976Z,5.60
2023-04-14T04:00:43.595Z,5.60
2023-04-14T04:03:11.668Z,5.60
2023-04-14T04:05:41.594Z,5.60
2023-04-14T04:08:09.958Z,5.60
2023-04-14T04:10:39.256Z,5.50
2023-04-14T04:13:13.717Z,5.30
2023-04-14T04:15:42.078Z,5.10
2023-04-14T04:18:11.480Z,5.10
2023-04-14T04:20:40.583Z,5.20
2023-04-14T04:23:09.716Z,5.20
2023-04-14T04:25:38.925Z,5.30
2023-04-14T04:28:06.372Z,5.30
2023-04-14T04:30:36.833Z,5.30
2023-04-14T04:33:04.283Z,5.40
2023-04-14T04:35:33.010Z,5.40
2023-04-14T04:38:01.968Z,5.40
2023-04-14T04:40:35.561Z,5.40
2023-04-14T04:43:02.825Z,5.50
2023-04-14T04:45:50.816Z,5.40
2023-04-14T04:48:20.478Z,5.30
2023-04-14T04:50:47.867Z,5.30
2023-04-14T04:53:15.049Z,5.30
2023-04-14T04:55:42.858Z,5.40
2023-04-14T04:58:10.246Z,5.40
2023-04-14T05:00:37.433Z,5.50
2023-04-14T05:03:04.832Z,5.40
2023-04-14T05:05:36.638Z,5.40
2023-04-14T05:08:04.181Z,5.50
2023-04-14T05:10:31.419Z,5.50
2023-04-14T05:12:58.528Z,5.40
2023-04-14T05:15:26.039Z,5.50
2023-04-14T05:17:53.735Z,5.50
2023-04-14T05:20:21.187Z,5.50
2023-04-14T05:22:48.295Z,5.50
2023-04-14T05:25:15.604Z,5.50
2023-04-14T05:27:42.785Z,5.60
2023-04-14T05:30:10.720Z,5.60
2023-04-14T05:32:37.990Z,5.70
2023-04-14T05:35:05.792Z,5.70
2023-04-14T05:37:34.480Z,5.90
2023-04-14T05:40:04.030Z,5.90
2023-04-14T05:42:31.252Z,6.00
2023-04-14T05:44:58.521Z,6.10
2023-04-14T05:47:25.744Z,6.10
2023-04-14T05:49:53.023Z,6.20
2023-04-14T05:52:20.115Z,6.30
2023-04-14T05:54:47.221Z,6.40
2023-04-14T05:57:14.299Z,6.50
2023-04-14T05:59:42.256Z,6.60
2023-04-14T06:02:09.565Z,6.60
2023-04-14T06:04:37.070Z,6.70
2023-04-14T06:07:04.899Z,6.80
2023-04-14T06:09:32.394Z,6.90
2023-04-14T06:11:59.583Z,7.00
2023-04-14T06:14:27.009Z,7.10
2023-04-14T06:16:55.386Z,7.20
2023-04-14T06:19:23.068Z,7.20
2023-04-14T06:21:50.999Z,7.30
2023-04-14T06:24:18.120Z,7.40
2023-04-14T06:26:45.894Z,7.40
2023-04-14T06:29:13.374Z,7.40
2023-04-14T06:31:40.897Z,7.50
2023-04-14T06:34:08.202Z,7.60
2023-04-14T06:36:35.258Z,7.60
2023-04-14T06:39:03.373Z,7.70
2023-04-14T06:41:30.853Z,7.80
2023-04-14T06:43:57.770Z,7.80
2023-04-14T06:46:25.135Z,7.90
2023-04-14T06:48:52.467Z,7.90
2023-04-14T06:51:19.842Z,8.00
2023-04-14T06:53:47.150Z,8.10
2023-04-14T06:56:14.450Z,8.10
2023-04-14T06:58:41.719Z,8.20
2023-04-14T07:01:08.997Z,8.20
2023-04-14T07:03:36.384Z,8.30
2023-04-14T07:06:08.584Z,8.30
2023-04-14T07:08:38.191Z,8.40
2023-04-14T07:11:08.480Z,8.50
2023-04-14T07:13:36.882Z,8.50
2023-04-14T07:16:06.852Z,8.60
2023-04-14T07:18:34.983Z,8.70
2023-04-14T07:21:03.510Z,8.70
2023-04-14T07:23:31.225Z,8.80
2023-04-14T07:25:59.923Z,8.80
2023-04-14T07:28:28.399Z,8.80
2023-04-14T07:30:56.010Z,8.80
2023-04-14T07:33:23.128Z,8.90
2023-04-14T07:36:02.342Z,8.90
2023-04-14T07:38:30.654Z,8.90
2023-04-14T07:40:57.778Z,9.00
2023-04-14T07:43:25.154Z,9.00
2023-04-14T07:45:53.431Z,9.00
2023-04-14T07:48:22.447Z,9.10
2023-04-14T07:50:52.266Z,9.10
2023-04-14T07:53:19.298Z,9.20
2023-04-14T07:55:46.801Z,9.20
2023-04-14T07:58:15.854Z,9.20
2023-04-14T08:00:43.845Z,9.30
2023-04-14T08:03:11.328Z,9.40
2023-04-14T08:05:38.718Z,9.40
2023-04-14T08:08:06.111Z,9.50
2023-04-14T08:10:33.161Z,9.50
2023-04-14T08:13:03.052Z,9.60
2023-04-14T08:15:32.511Z,9.60
2023-04-14T08:17:59.766Z,9.70
2023-04-14T08:20:27.271Z,9.80
2023-04-14T08:22:55.477Z,9.80
2023-04-14T08:25:22.630Z,9.80
2023-04-14T08:27:49.777Z,9.90
2023-04-14T08:30:17.416Z,9.90
2023-04-14T08:32:44.882Z,10.00
2023-04-14T08:35:37.305Z,10.10
2023-04-14T08:38:01.548Z,10.10
2023-04-14T08:40:39.956Z,10.20
2023-04-14T08:43:07.774Z,10.20
2023-04-14T08:45:35.794Z,10.30
2023-04-14T08:48:04.324Z,10.30
2023-04-14T08:50:43.360Z,10.40
2023-04-14T08:53:12.358Z,10.40
2023-04-14T08:55:44.321Z,10.50
2023-04-14T08:58:11.663Z,10.50
2023-04-14T09:00:40.436Z,10.50
2023-04-14T09:03:09.455Z,10.60
2023-04-14T09:05:40.963Z,10.60
2023-04-14T09:08:08.460Z,10.70
2023-04-14T09:10:36.363Z,10.70
2023-04-14T09:13:04.875Z,10.80
2023-04-14T09:15:32.062Z,10.80
2023-04-14T09:17:59.276Z,10.80
2023-04-14T09:20:35.807Z,10.80
2023-04-14T09:23:10.420Z,10.90
2023-04-14T09:25:41.904Z,10.90
2023-04-14T09:28:09.481Z,10.90
2023-04-14T09:30:37.059Z,10.90
2023-04-14T09:33:08.503Z,10.80
2023-04-14T09:35:50.660Z,10.80
2023-04-14T09:38:38.151Z,10.80
2023-04-14T09:41:09.315Z,10.70
2023-04-14T09:43:37.030Z,10.60
2023-04-14T09:46:10.939Z,10.60
2023-04-14T09:48:57.922Z,10.50
2023-04-14T09:51:29.743Z,10.50
2023-04-14T09:54:03.393Z,10.50
2023-04-14T09:56:31.028Z,10.50
2023-04-14T09:59:02.899Z,10.40
2023-04-14T10:01:32.851Z,10.40
2023-04-14T10:04:05.080Z,10.40
2023-04-14T10:06:32.409Z,10.30
2023-04-14T10:09:01.705Z,10.40
2023-04-14T10:11:36.683Z,10.40
2023-04-14T10:14:06.580Z,10.40
2023-04-14T10:16:34.925Z,10.50
2023-04-14T10:19:03.163Z,10.60
2023-04-14T10:21:30.848Z,10.70
2023-04-14T10:23:58.242Z,10.70
2023-04-14T10:26:26.624Z,10.80
2023-04-14T10:28:56.532Z,10.90
2023-04-14T10:31:37.032Z,10.90
2023-04-14T10:34:11.650Z,10.90
2023-04-14T10:36:39.388Z,11.00
2023-04-14T10:39:07.841Z,11.00
2023-04-14T10:41:47.603Z,11.00
2023-04-14T10:44:29.729Z,11.00
2023-04-14T10:46:58.208Z,11.00
2023-04-14T10:49:30.642Z,11.10
2023-04-14T10:52:03.604Z,11.10
2023-04-14T10:55:01.418Z,11.20
2023-04-14T10:57:29.830Z,11.30
2023-04-14T11:00:00.657Z,11.40
2023-04-14T11:02:33.700Z,11.40
2023-04-14T11:05:09.369Z,11.50
2023-04-14T11:07:46.472Z,11.60
2023-04-14T11:10:34.077Z,11.80
2023-04-14T11:13:07.135Z,11.80
2023-04-14T11:15:51.634Z,11.90
2023-04-14T11:18:46.300Z,12.00
2023-04-14T11:21:16.832Z,12.00
2023-04-14T11:23:46.336Z,12.10
2023-04-14T11:26:14.352Z,12.10
2023-04-14T11:28:47.046Z,12.20
2023-04-14T11:31:17.310Z,12.30
2023-04-14T11:33:47.527Z,12.30
2023-04-14T11:36:14.530Z,12.40
2023-04-14T11:38:43.318Z,12.50
2023-04-14T11:41:14.732Z,12.50
2023-04-14T11:43:47.207Z,12.40
2023-04-14T11:46:15.916Z,12.50
2023-04-14T11:48:43.424Z,12.50
2023-04-14T11:51:13.522Z,12.50
2023-04-14T11:53:41.498Z,12.50
2023-04-14T11:56:09.367Z,12.60
2023-04-14T11:58:36.572Z,12.60
2023-04-14T12:01:03.869Z,12.60
2023-04-14T12:03:37.973Z,12.60
2023-04-14T12:06:06.050Z,12.60
2023-04-14T12:08:34.291Z,12.60
2023-04-14T12:11:21.934Z,12.60
2023-04-14T12:13:53.339Z,12.60
2023-04-14T12:16:20.661Z,12.60
2023-04-14T12:18:48.127Z,12.60
2023-04-14T12:21:19.979Z,12.60
2023-04-14T12:23:48.810Z,12.60
2023-04-14T12:26:16.413Z,12.60
2023-04-14T12:28:43.864Z,12.60
2023-04-14T12:31:11.679Z,12.60
2023-04-14T12:33:38.916Z,12.60
2023-04-14T12:36:14.184Z,12.70
2023-04-14T12:38:41.777Z,12.80
2023-04-14T12:41:09.411Z,12.90
2023-04-14T12:43:38.596Z,13.00
2023-04-14T12:46:06.406Z,13.00
2023-04-14T12:48:48.767Z,13.00
2023-04-14T12:51:19.855Z,13.00
2023-04-14T12:53:48.826Z,13.00
2023-04-14T12:56:27.807Z,13.00
2023-04-14T12:58:55.467Z,13.00
2023-04-14T13:01:23.920Z,13.10
2023-04-14T13:04:14.375Z,13.20
2023-04-14T13:06:41.717Z,13.20
2023-04-14T13:09:08.962Z,13.20
2023-04-14T13:11:36.319Z,13.20
2023-04-14T13:14:03.496Z,13.20
2023-04-14T13:16:33.816Z,13.20
2023-04-14T13:19:01.495Z,13.10
2023-04-14T13:21:28.778Z,13.10
2023-04-14T13:23:56.427Z,13.10
2023-04-14T13:26:23.899Z,13.00
2023-04-14T13:28:51.353Z,12.90
2023-04-14T13:31:18.733Z,12.90
2023-04-14T13:33:46.058Z,12.90
2023-04-14T13:36:13.413Z,12.90
2023-04-14T13:38:41.028Z,13.00
2023-04-14T13:41:08.641Z,13.00
2023-04-14T13:43:36.303Z,13.00
2023-04-14T13:46:03.951Z,13.00
2023-04-14T13:48:31.879Z,13.00
2023-04-14T13:50:59.929Z,13.00
2023-04-14T13:53:29.951Z,13.00
2023-04-14T13:55:57.260Z,13.00
2023-04-14T13:58:25.544Z,12.90
2023-04-14T14:00:52.959Z,12.80
2023-04-14T14:03:20.204Z,12.80
2023-04-14T14:05:47.533Z,12.70
2023-04-14T14:08:16.510Z,12.80
2023-04-14T14:10:44.510Z,12.80
2023-04-14T14:13:11.849Z,12.80
2023-04-14T14:15:39.212Z,12.80
2023-04-14T14:18:07.041Z,12.80
2023-04-14T14:20:34.265Z,12.80
2023-04-14T14:23:01.450Z,12.80
2023-04-14T14:25:30.001Z,12.80
2023-04-14T14:27:57.411Z,12.80
2023-04-14T14:30:25.400Z,12.70
2023-04-14T14:32:52.555Z,12.80
2023-04-14T14:35:19.722Z,12.70
2023-04-14T14:37:47.799Z,12.80
2023-04-14T14:40:14.957Z,12.70
2023-04-14T14:42:42.071Z,12.60
2023-04-14T14:45:10.438Z,12.50
2023-04-14T14:47:38.242Z,12.40
2023-04-14T14:50:08.504Z,12.30
2023-04-14T14:52:35.993Z,12.30
2023-04-14T14:55:03.971Z,12.20
2023-04-14T14:57:32.063Z,12.20
2023-04-14T14:59:59.267Z,12.10
2023-04-14T15:02:29.644Z,12.10
2023-04-14T15:04:56.951Z,12.10
2023-04-14T15:07:24.099Z,12.00
2023-04-14T15:09:51.260Z,11.90
2023-04-14T15:12:18.528Z,11.90
2023-04-14T15:14:45.961Z,11.80
2023-04-14T15:17:13.139Z,11.70
2023-04-14T15:19:41.479Z,11.70
2023-04-14T15:22:09.688Z,11.80
2023-04-14T15:24:36.887Z,11.80
2023-04-14T15:27:04.282Z,11.80
2023-04-14T15:29:31.937Z,11.80
2023-04-14T15:31:59.212Z,11.80
2023-04-14T15:34:26.454Z,11.70
2023-04-14T15:36:53.712Z,11.80
2023-04-14T15:39:21.062Z,11.70
2023-04-14T15:41:50.672Z,11.80
2023-04-14T15:44:19.239Z,11.80
2023-04-14T15:46:47.813Z,11.60
2023-04-14T15:49:14.964Z,11.60
2023-04-14T15:51:42.333Z,11.50
2023-04-14T15:54:09.530Z,11.50
2023-04-14T15:56:38.810Z,11.50
2023-04-14T15:59:06.481Z,11.40
2023-04-14T16:01:33.877Z,11.40
2023-04-14T16:04:04.900Z,11.30
2023-04-14T16:06:32.570Z,11.30
2023-04-14T16:09:00.040Z,11.40
2023-04-14T16:11:28.046Z,11.40
2023-04-14T16:13:56.061Z,11.40
2023-04-14T16:16:25.447Z,11.40
2023-04-14T16:18:53.036Z,11.40
2023-04-14T16:21:20.348Z,11.40
2023-04-14T16:23:47.699Z,11.30
2023-04-14T16:26:16.211Z,11.30
2023-04-14T16:28:43.892Z,11.40
2023-04-14T16:31:11.324Z,11.30
2023-04-14T16:33:38.644Z,11.30
2023-04-14T16:36:07.979Z,11.30
2023-04-14T16:38:35.974Z,11.30
2023-04-14T16:41:03.742Z,11.30
2023-04-14T16:43:31.052Z,11.20
2023-04-14T16:46:07.560Z,11.30
2023-04-14T16:48:37.768Z,11.20
2023-04-14T16:51:09.281Z,11.20
2023-04-14T16:53:40.373Z,11.10
2023-04-14T16:56:11.488Z,11.10
2023-04-14T16:58:39.225Z,11.00
2023-04-14T17:01:09.800Z,11.00
2023-04-14T17:03:37.329Z,10.90
2023-04-14T17:06:04.981Z,10.90
2023-04-14T17:08:32.308Z,10.80
2023-04-14T17:10:59.525Z,10.70
2023-04-14T17:13:28.186Z,10.70
2023-04-14T17:16:02.403Z,10.60
2023-04-14T17:18:36.043Z,10.60
2023-04-14T17:21:03.586Z,10.60
2023-04-14T17:23:30.794Z,10.60
2023-04-14T17:26:00.850Z,10.60
2023-04-14T17:28:28.209Z,10.50
2023-04-14T17:30:56.040Z,10.50
2023-04-14T17:33:27.592Z,10.40
2023-04-14T17:35:55.774Z,10.40
2023-04-14T17:38:23.723Z,10.40
2023-04-14T17:40:54.935Z,10.40
2023-04-14T17:43:23.798Z,10.30
2023-04-14T17:45:51.677Z,10.10
2023-04-14T17:48:19.656Z,10.00
2023-04-14T17:50:47.206Z,9.90
2023-04-14T17:53:16.541Z,9.80
2023-04-14T17:55:45.114Z,9.80
2023-04-14T17:58:12.991Z,9.80
2023-04-14T18:00:40.481Z,9.80
2023-04-14T18:03:08.024Z,9.80
2023-04-14T18:05:35.305Z,9.70
2023-04-14T18:08:02.921Z,9.70
2023-04-14T18:10:30.201Z,9.70
2023-04-14T18:12:58.587Z,9.60
2023-04-14T18:15:26.447Z,9.60
2023-04-14T18:17:53.751Z,9.60
2023-04-14T18:20:25.109Z,9.50
2023-04-14T18:22:54.325Z,9.50
2023-04-14T18:25:21.872Z,9.40
2023-04-14T18:30:19.652Z,9.30
2023-04-14T18:32:49.780Z,9.30
2023-04-14T18:35:19.088Z,9.30
2023-04-14T18:37:46.873Z,9.30
2023-04-14T18:40:14.090Z,9.20
2023-04-14T18:42:41.479Z,9.20
2023-04-14T18:45:10.924Z,9.20
2023-04-14T18:47:39.019Z,9.20
2023-04-14T18:50:10.159Z,9.20
2023-04-14T18:52:45.734Z,9.20
2023-04-14T18:55:16.295Z,9.10
2023-04-14T18:57:47.343Z,9.10
2023-04-14T19:00:19.120Z,9.10
2023-04-14T19:02:50.143Z,9.10
2023-04-14T19:05:17.728Z,9.10
2023-04-14T19:07:44.912Z,9.10
2023-04-14T19:10:12.245Z,9.10
2023-04-14T19:12:41.247Z,9.10
2023-04-14T19:15:13.333Z,9.10
2023-04-14T19:17:41.759Z,9.00
2023-04-14T19:20:10.155Z,9.00
2023-04-14T19:22:37.176Z,9.00
2023-04-14T19:25:08.641Z,9.00
2023-04-14T19:27:36.377Z,9.00
2023-04-14T19:30:04.232Z,9.00
2023-04-14T19:32:33.431Z,9.00
2023-04-14T19:35:01.911Z,9.00
2023-04-14T19:37:29.153Z,9.00
2023-04-14T19:40:01.147Z,9.00
2023-04-14T19:42:29.048Z,9.00
2023-04-14T19:44:58.050Z,9.00
2023-04-14T19:47:26.502Z,8.90
2023-04-14T19:49:55.467Z,8.90
2023-04-14T19:52:29.155Z,8.90
2023-04-14T19:54:59.447Z,8.80
2023-04-14T19:57:30.855Z,8.80
2023-04-14T19:59:58.160Z,8.80
2023-04-14T20:02:30.028Z,8.80
2023-04-14T20:05:02.034Z,8.70
2023-04-14T20:07:29.346Z,8.70
2023-04-14T20:09:56.624Z,8.70
2023-04-14T20:12:24.059Z,8.60
2023-04-14T20:14:51.200Z,8.60
2023-04-14T20:17:21.249Z,8.60
2023-04-14T20:19:48.493Z,8.60
2023-04-14T20:22:15.670Z,8.60
2023-04-14T20:24:42.760Z,8.50
2023-04-14T20:27:10.005Z,8.50
2023-04-14T20:29:37.215Z,8.50
2023-04-14T20:32:04.441Z,8.50
2023-04-14T20:34:31.688Z,8.50
2023-04-14T20:36:59.384Z,8.50
2023-04-14T20:39:26.784Z,8.50
2023-04-14T20:41:54.016Z,8.40
2023-04-14T20:44:21.793Z,8.50
2023-04-14T20:46:49.064Z,8.50
2023-04-14T20:49:16.257Z,8.40
2023-04-14T20:51:43.554Z,8.40
2023-04-14T20:54:10.783Z,8.40
2023-04-14T20:56:38.335Z,8.30
2023-04-14T20:59:05.616Z,8.30
2023-04-14T21:01:32.829Z,8.30
2023-04-14T21:04:00.016Z,8.30
2023-04-14T21:06:27.425Z,8.30
2023-04-14T21:08:55.060Z,8.30
2023-04-14T21:11:22.525Z,8.30
2023-04-14T21:15:39.963Z,8.20
2023-04-14T21:16:39.453Z,8.30
2023-04-14T21:19:07.165Z,8.30
2023-04-14T21:21:34.686Z,8.20
2023-04-14T21:24:02.877Z,8.20
2023-04-14T21:26:30.358Z,8.20
2023-04-14T21:29:00.893Z,8.10
2023-04-14T21:31:28.982Z,8.20
2023-04-14T21:33:56.343Z,8.20
2023-04-14T21:36:23.694Z,8.20
2023-04-14T21:38:51.295Z,8.20
2023-04-14T21:41:18.850Z,8.20
2023-04-14T21:43:45.986Z,8.20
2023-04-14T21:46:13.187Z,8.20
2023-04-14T21:48:40.606Z,8.20
2023-04-14T21:51:07.912Z,8.20
2023-04-14T21:53:36.962Z,8.20
2023-04-14T21:56:10.298Z,8.20
2023-04-14T21:58:42.603Z,8.20
2023-04-14T22:01:10.573Z,8.20
2023-04-14T22:03:40.971Z,8.10
2023-04-14T22:06:10.323Z,8.10
2023-04-14T22:08:40.000Z,8.10
2023-04-14T22:11:08.026Z,8.20
2023-04-14T22:13:35.407Z,8.10
2023-04-14T22:16:02.914Z,8.10
2023-04-14T22:18:31.265Z,8.10
2023-04-14T22:20:58.981Z,8.10
2023-04-14T22:23:26.371Z,8.10
2023-04-14T22:25:53.892Z,8.10
2023-04-14T22:28:20.968Z,8.10
2023-04-14T22:30:48.396Z,8.20
2023-04-14T22:33:15.826Z,8.20
2023-04-14T22:35:43.108Z,8.20
2023-04-14T22:38:10.547Z,8.20
2023-04-14T22:40:37.824Z,8.20
2023-04-14T22:43:09.230Z,8.20
2023-04-14T22:45:38.081Z,8.10
2023-04-14T22:48:07.244Z,8.10
2023-04-14T22:50:35.555Z,8.10
2023-04-14T22:53:03.330Z,8.10
2023-04-14T22:55:31.009Z,8.10
2023-04-14T22:57:58.322Z,8.10
2023-04-14T23:00:25.954Z,8.10
2023-04-14T23:02:53.933Z,8.10
2023-04-14T23:05:21.662Z,8.10
2023-04-14T23:07:49.159Z,8.10
2023-04-14T23:10:16.319Z,8.10
2023-04-14T23:12:43.787Z,8.10
2023-04-14T23:15:11.120Z,8.10
2023-04-14T23:17:38.523Z,8.10
2023-04-14T23:20:06.359Z,8.10
2023-04-14T23:22:33.423Z,8.10
2023-04-14T23:25:01.012Z,8.10
2023-04-14T23:27:29.023Z,8.10
2023-04-14T23:29:56.779Z,8.10
2023-04-14T23:32:24.452Z,8.10
2023-04-14T23:34:51.602Z,8.10
2023-04-14T23:37:18.950Z,8.10
2023-04-14T23:39:47.246Z,8.10
2023-04-14T23:42:14.668Z,8.20
2023-04-14T23:44:42.380Z,8.20
2023-04-14T23:47:10.033Z,8.20
2023-04-14T23:49:37.686Z,8.20
2023-04-14T23:52:05.456Z,8.20
2023-04-14T23:54:32.951Z,8.20
2023-04-14T23:57:00.131Z,8.20
2023-04-14T23:59:27.366Z,8.20
